Albion, Maine
Current Conditions -  °F | °C
As of 6:15 PM on Friday 19 Dec 2014 (Local Time) from KWVL Reporting Station
Clear Clear  
Wind Chill: 20°   Ceiling: Unl
Heat Index: 28°   Visibility: 10mi
Dew Point: 16°   Wind: 9mph
Humidity: 59%   Direction: 360°N
Pressure: 29.98"   Gusts: NA
Location:  44.53°N, 69.44°W
Report Text: KWVL 192315Z 36008KT 10SM CLR M02/M09 A2998 RMK AO1
Loading
Personal Weather Stations






























Interactive Weather Map New forecast layout! Learn more

10-Day Weather Forecast

Advertisements
Track Severe Weather on mobile